createdAt,value
2024-02-19T00:00:07.044Z,1.00
2024-02-19T00:02:34.921Z,1.00
2024-02-19T00:05:03.125Z,1.00
2024-02-19T00:07:31.019Z,1.00
2024-02-19T00:09:58.920Z,1.00
2024-02-19T00:12:28.208Z,1.00
2024-02-19T00:14:56.616Z,1.00
2024-02-19T00:17:24.636Z,1.00
2024-02-19T00:19:52.861Z,1.00
2024-02-19T00:22:20.898Z,1.00
2024-02-19T00:24:48.835Z,1.00
2024-02-19T00:27:18.183Z,1.00
2024-02-19T00:29:47.334Z,1.00
2024-02-19T00:32:15.256Z,1.00
2024-02-19T00:34:44.593Z,1.00
2024-02-19T00:37:12.666Z,1.00
2024-02-19T00:39:40.585Z,1.00
2024-02-19T00:42:08.613Z,1.00
2024-02-19T00:44:36.754Z,1.00
2024-02-19T00:47:05.995Z,1.00
2024-02-19T00:49:33.973Z,1.00
2024-02-19T00:52:02.478Z,1.00
2024-02-19T00:54:30.324Z,1.00
2024-02-19T00:56:58.218Z,1.00
2024-02-19T00:59:26.456Z,1.00
2024-02-19T01:01:54.408Z,1.00
2024-02-19T01:04:23.931Z,1.00
2024-02-19T01:06:51.847Z,1.00
2024-02-19T01:09:19.676Z,1.00
2024-02-19T01:11:47.513Z,1.00
2024-02-19T01:14:15.318Z,1.00
2024-02-19T01:16:43.183Z,1.00
2024-02-19T01:19:11.075Z,1.00
2024-02-19T01:21:40.466Z,1.00
2024-02-19T01:24:09.158Z,1.00
2024-02-19T01:26:36.998Z,1.00
2024-02-19T01:29:04.850Z,1.00
2024-02-19T01:31:32.969Z,1.00
2024-02-19T01:34:00.945Z,1.00
2024-02-19T01:36:28.870Z,1.00
2024-02-19T01:38:58.058Z,1.00
2024-02-19T01:41:26.445Z,1.00
2024-02-19T01:43:54.334Z,1.00
2024-02-19T01:46:22.637Z,1.00
2024-02-19T01:48:50.844Z,1.00
2024-02-19T01:51:20.620Z,1.00
2024-02-19T01:53:49.407Z,1.00
2024-02-19T01:56:19.174Z,1.00
2024-02-19T01:58:47.490Z,1.00
2024-02-19T02:01:17.167Z,1.00
2024-02-19T02:03:45.353Z,1.00
2024-02-19T02:06:13.253Z,1.00
2024-02-19T02:08:41.484Z,1.00
2024-02-19T02:11:09.505Z,1.00
2024-02-19T02:13:38.724Z,1.00
2024-02-19T02:16:08.246Z,1.00
2024-02-19T02:18:36.862Z,1.00
2024-02-19T02:21:05.023Z,1.00
2024-02-19T02:23:33.796Z,1.00
2024-02-19T02:26:01.727Z,1.00
2024-02-19T02:28:31.134Z,1.00
2024-02-19T02:30:58.979Z,1.00
2024-02-19T02:33:27.325Z,1.00
2024-02-19T02:35:55.325Z,1.00
2024-02-19T02:38:23.164Z,1.00
2024-02-19T02:40:51.018Z,1.00
2024-02-19T02:43:18.861Z,1.00
2024-02-19T02:45:48.602Z,1.00
2024-02-19T02:48:17.233Z,1.00
2024-02-19T02:50:45.069Z,1.00
2024-02-19T02:53:12.931Z,1.00
2024-02-19T02:55:40.720Z,1.00
2024-02-19T02:58:08.570Z,1.00
2024-02-19T03:00:36.756Z,1.00
2024-02-19T03:03:06.405Z,1.00
2024-02-19T03:05:34.232Z,1.00
2024-02-19T03:08:02.184Z,1.00
2024-02-19T03:10:30.277Z,1.00
2024-02-19T03:12:58.142Z,1.00
2024-02-19T03:15:25.980Z,1.00
2024-02-19T03:17:53.810Z,1.00
2024-02-19T03:20:24.692Z,1.00
2024-02-19T03:22:53.208Z,1.00
2024-02-19T03:25:21.183Z,1.00
2024-02-19T03:27:52.899Z,1.00
2024-02-19T03:30:21.477Z,1.00
2024-02-19T03:32:49.391Z,1.00
2024-02-19T03:35:17.276Z,1.00
2024-02-19T03:37:47.482Z,1.00
2024-02-19T03:40:15.529Z,1.00
2024-02-19T03:42:44.007Z,1.00
2024-02-19T03:45:11.959Z,1.00
2024-02-19T03:47:39.837Z,1.00
2024-02-19T03:50:08.111Z,1.00
2024-02-19T03:52:36.425Z,1.00
2024-02-19T03:55:06.377Z,1.00
2024-02-19T03:57:34.248Z,1.00
2024-02-19T04:00:05.944Z,1.00
2024-02-19T04:02:33.879Z,1.00
2024-02-19T04:05:01.816Z,1.00
2024-02-19T04:07:29.756Z,1.00
2024-02-19T04:09:57.597Z,1.00
2024-02-19T04:12:26.784Z,1.00
2024-02-19T04:14:54.622Z,1.00
2024-02-19T04:17:22.453Z,1.00
2024-02-19T04:19:50.358Z,1.00
2024-02-19T04:22:18.333Z,1.00
2024-02-19T04:24:46.287Z,1.00
2024-02-19T04:27:15.524Z,1.00
2024-02-19T04:29:44.702Z,1.00
2024-02-19T04:32:12.519Z,1.00
2024-02-19T04:34:41.105Z,1.00
2024-02-19T04:37:09.853Z,1.00
2024-02-19T04:39:37.943Z,1.00
2024-02-19T04:42:06.365Z,1.00
2024-02-19T04:44:34.186Z,1.00
2024-02-19T04:47:03.395Z,1.00
2024-02-19T04:49:31.345Z,1.00
2024-02-19T04:51:59.494Z,1.00
2024-02-19T04:54:28.959Z,1.00
2024-02-19T04:56:56.774Z,1.00
2024-02-19T04:59:24.618Z,1.00
2024-02-19T05:01:54.659Z,1.00
2024-02-19T05:04:25.845Z,4.00
2024-02-19T05:06:54.436Z,6.50
2024-02-19T05:09:22.325Z,10.00
2024-02-19T05:11:50.638Z,8.90
2024-02-19T05:14:18.489Z,9.50
2024-02-19T05:16:47.058Z,6.70
2024-02-19T05:19:14.952Z,1.00
2024-02-19T05:21:44.787Z,1.90
2024-02-19T05:24:14.965Z,5.70
2024-02-19T05:26:42.815Z,1.00
2024-02-19T05:29:10.980Z,5.50
2024-02-19T05:31:40.848Z,2.70
2024-02-19T05:34:09.471Z,1.00
2024-02-19T05:36:37.510Z,1.80
2024-02-19T05:39:11.532Z,8.30
2024-02-19T05:41:39.768Z,3.70
2024-02-19T05:44:07.660Z,12.40
2024-02-19T05:46:35.709Z,7.50
2024-02-19T05:49:03.748Z,9.90
2024-02-19T05:51:31.675Z,4.20
2024-02-19T05:53:59.586Z,6.40
2024-02-19T05:56:30.222Z,6.10
2024-02-19T05:58:58.071Z,9.00
2024-02-19T06:01:26.110Z,12.30
2024-02-19T06:03:54.045Z,12.50
2024-02-19T06:06:22.011Z,3.70
2024-02-19T06:08:49.854Z,6.60
2024-02-19T06:11:17.744Z,6.80
2024-02-19T06:13:46.918Z,3.70
2024-02-19T06:16:14.750Z,1.60
2024-02-19T06:18:42.789Z,1.00
2024-02-19T06:21:10.676Z,1.00
2024-02-19T06:23:38.506Z,1.00
2024-02-19T06:26:06.407Z,1.00
2024-02-19T06:28:34.651Z,1.00
2024-02-19T06:31:03.892Z,1.00
2024-02-19T06:33:31.816Z,1.00
2024-02-19T06:35:59.703Z,1.00
2024-02-19T06:38:27.587Z,1.00
2024-02-19T06:40:57.243Z,1.00
2024-02-19T06:43:25.348Z,1.00
2024-02-19T06:45:53.895Z,1.00
2024-02-19T06:48:23.271Z,1.00
2024-02-19T06:50:51.204Z,1.00
2024-02-19T06:53:19.123Z,1.00
2024-02-19T06:55:47.014Z,1.00
2024-02-19T06:58:15.030Z,1.00
2024-02-19T07:00:43.034Z,1.00
2024-02-19T07:03:10.935Z,1.00
2024-02-19T07:05:40.227Z,1.00
2024-02-19T07:08:08.666Z,1.00
2024-02-19T07:10:36.701Z,1.00
2024-02-19T07:13:04.840Z,1.00
2024-02-19T07:15:32.728Z,1.00
2024-02-19T07:18:00.647Z,1.00
2024-02-19T07:20:28.678Z,2.00
2024-02-19T07:22:57.844Z,1.00
2024-02-19T07:25:25.697Z,1.00
2024-02-19T07:27:53.597Z,1.00
2024-02-19T07:30:21.496Z,1.00
2024-02-19T07:32:49.448Z,1.00
2024-02-19T07:35:17.533Z,1.00
2024-02-19T07:37:45.394Z,1.00
2024-02-19T07:40:14.674Z,1.00
2024-02-19T07:42:42.559Z,1.00
2024-02-19T07:45:11.042Z,1.00
2024-02-19T07:47:39.039Z,1.00
2024-02-19T07:50:07.582Z,1.00
2024-02-19T07:52:35.503Z,1.00
2024-02-19T07:55:03.420Z,1.00
2024-02-19T07:57:32.634Z,1.00
2024-02-19T08:00:00.609Z,1.00
2024-02-19T08:02:28.593Z,1.00
2024-02-19T08:04:56.607Z,1.00
2024-02-19T08:07:24.718Z,1.00
2024-02-19T08:09:52.562Z,1.00
2024-02-19T08:12:20.490Z,1.00
2024-02-19T08:14:49.767Z,1.00
2024-02-19T08:17:18.423Z,1.00
2024-02-19T08:19:46.368Z,1.00
2024-02-19T08:22:14.285Z,1.00
2024-02-19T08:24:42.135Z,1.00
2024-02-19T08:27:10.003Z,1.00
2024-02-19T08:29:37.825Z,1.00
2024-02-19T08:32:08.019Z,1.00
2024-02-19T08:34:35.996Z,1.00
2024-02-19T08:37:03.967Z,1.00
2024-02-19T08:39:32.001Z,1.00
2024-02-19T08:42:00.068Z,1.00
2024-02-19T08:44:27.851Z,1.00
2024-02-19T08:46:55.665Z,1.00
2024-02-19T08:49:26.625Z,1.00
2024-02-19T08:51:54.548Z,1.00
2024-02-19T08:54:22.364Z,1.00
2024-02-19T08:56:50.156Z,1.00
2024-02-19T08:59:18.002Z,1.00
2024-02-19T09:01:46.061Z,1.00
2024-02-19T09:04:14.122Z,1.00
2024-02-19T09:06:43.524Z,1.00
2024-02-19T09:09:11.578Z,1.00
2024-02-19T09:11:39.432Z,1.00
2024-02-19T09:14:07.300Z,1.00
2024-02-19T09:16:35.343Z,1.00
2024-02-19T09:19:06.838Z,1.00
2024-02-19T09:21:34.923Z,1.00
2024-02-19T09:24:04.250Z,1.00
2024-02-19T09:26:32.040Z,1.00
2024-02-19T09:28:59.864Z,1.00
2024-02-19T09:31:27.897Z,1.00
2024-02-19T09:33:55.978Z,1.00
2024-02-19T09:36:23.890Z,1.00
2024-02-19T09:38:52.242Z,1.00
2024-02-19T09:41:21.869Z,1.00
2024-02-19T09:43:50.202Z,1.00
2024-02-19T09:46:20.338Z,1.00
2024-02-19T09:48:50.326Z,1.00
2024-02-19T09:51:29.428Z,1.00
2024-02-19T09:54:01.898Z,1.00
2024-02-19T09:56:31.452Z,1.00
2024-02-19T09:58:59.462Z,1.00
2024-02-19T10:01:27.493Z,1.00
2024-02-19T10:03:56.433Z,1.00
2024-02-19T10:06:32.278Z,1.00
2024-02-19T10:09:01.768Z,1.00
2024-02-19T10:11:31.057Z,1.00
2024-02-19T10:13:58.910Z,1.00
2024-02-19T10:16:26.802Z,1.00
2024-02-19T10:19:05.607Z,1.00
2024-02-19T10:21:33.687Z,1.00
2024-02-19T10:24:02.009Z,1.00
2024-02-19T10:26:31.255Z,1.00
2024-02-19T10:28:59.244Z,1.00
2024-02-19T10:31:29.225Z,1.00
2024-02-19T10:33:57.441Z,1.00
2024-02-19T10:36:26.148Z,1.00
2024-02-19T10:38:54.181Z,1.00
2024-02-19T10:41:24.432Z,1.00
2024-02-19T10:43:53.936Z,1.00
2024-02-19T10:46:23.463Z,1.00
2024-02-19T10:48:53.644Z,1.00
2024-02-19T10:51:22.607Z,1.00
2024-02-19T10:54:00.514Z,1.00
2024-02-19T10:56:36.462Z,99.90
2024-02-19T10:59:06.548Z,99.90
2024-02-19T11:01:44.296Z,65.10
2024-02-19T11:04:13.706Z,99.90
2024-02-19T11:06:41.864Z,1.00
2024-02-19T11:09:13.619Z,99.90
2024-02-19T11:11:48.249Z,99.90
2024-02-19T11:14:22.468Z,99.90
2024-02-19T11:16:50.677Z,1.00
2024-02-19T11:19:19.359Z,99.90
2024-02-19T11:21:47.781Z,1.00
2024-02-19T11:24:15.660Z,99.90
2024-02-19T11:26:43.766Z,99.90
2024-02-19T11:29:15.467Z,1.00
2024-02-19T11:31:45.284Z,99.90
2024-02-19T11:34:15.825Z,99.90
2024-02-19T11:36:44.286Z,99.90
2024-02-19T11:39:12.144Z,99.90
2024-02-19T11:41:40.120Z,99.90
2024-02-19T11:44:08.081Z,99.90
2024-02-19T11:46:36.393Z,99.90
2024-02-19T11:49:05.694Z,99.90
2024-02-19T11:51:36.080Z,99.90
2024-02-19T11:54:04.133Z,99.90
2024-02-19T11:56:42.714Z,1.00
2024-02-19T11:59:11.209Z,1.00
2024-02-19T12:01:39.349Z,1.00
2024-02-19T12:04:08.679Z,1.00
2024-02-19T12:06:38.438Z,1.00
2024-02-19T12:09:08.856Z,1.00
2024-02-19T12:11:36.894Z,1.00
2024-02-19T12:14:05.343Z,1.00
2024-02-19T12:16:33.411Z,1.00
2024-02-19T12:19:01.954Z,1.00
2024-02-19T12:21:31.449Z,1.00
2024-02-19T12:23:59.304Z,1.00
2024-02-19T12:26:27.345Z,1.00
2024-02-19T12:28:55.261Z,1.00
2024-02-19T12:31:23.517Z,1.00
2024-02-19T12:33:51.546Z,1.00
2024-02-19T12:36:19.569Z,1.00
2024-02-19T12:38:51.626Z,1.00
2024-02-19T12:41:19.828Z,1.00
2024-02-19T12:43:48.166Z,99.90
2024-02-19T12:46:17.142Z,99.90
2024-02-19T12:48:45.304Z,1.00
2024-02-19T12:51:16.346Z,1.00
2024-02-19T12:53:45.156Z,1.00
2024-02-19T12:56:14.444Z,1.00
2024-02-19T12:58:42.259Z,1.00
2024-02-19T13:01:20.657Z,1.00
2024-02-19T13:03:55.941Z,1.00
2024-02-19T13:06:23.878Z,1.00
2024-02-19T13:08:51.739Z,1.00
2024-02-19T13:11:21.044Z,1.00
2024-02-19T13:13:48.964Z,1.00
2024-02-19T13:16:17.157Z,1.00
2024-02-19T13:18:45.204Z,1.00
2024-02-19T13:21:13.222Z,1.00
2024-02-19T13:23:41.193Z,1.00
2024-02-19T13:26:11.434Z,1.00
2024-02-19T13:28:40.666Z,1.00
2024-02-19T13:31:08.573Z,1.00
2024-02-19T13:33:36.787Z,1.00
2024-02-19T13:36:06.485Z,1.00
2024-02-19T13:38:34.434Z,1.00
2024-02-19T13:41:04.595Z,1.00
2024-02-19T13:43:33.746Z,99.90
2024-02-19T13:46:05.896Z,99.90
2024-02-19T13:48:34.657Z,99.90
2024-02-19T13:51:03.549Z,99.90
2024-02-19T13:53:33.350Z,99.90
2024-02-19T13:56:04.753Z,99.90
2024-02-19T13:58:33.318Z,99.90
2024-02-19T14:01:05.536Z,99.90
2024-02-19T14:03:35.080Z,99.90
2024-02-19T14:06:03.161Z,99.90
2024-02-19T14:08:31.105Z,99.90
2024-02-19T14:11:00.410Z,99.90
2024-02-19T14:13:28.599Z,99.90
2024-02-19T14:15:57.324Z,99.90
2024-02-19T14:18:26.179Z,1.00
2024-02-19T14:20:57.937Z,99.90
2024-02-19T14:23:26.035Z,99.90
2024-02-19T14:25:53.944Z,99.90
2024-02-19T14:28:22.201Z,99.90
2024-02-19T14:30:50.664Z,99.90
2024-02-19T14:33:18.576Z,99.90
2024-02-19T14:35:47.334Z,99.90
2024-02-19T14:38:16.775Z,99.90
2024-02-19T14:40:44.824Z,99.90
2024-02-19T14:43:12.975Z,1.00
2024-02-19T14:45:40.818Z,99.90
2024-02-19T14:48:10.092Z,1.00
2024-02-19T14:50:38.801Z,1.00
2024-02-19T14:53:06.814Z,1.00
2024-02-19T14:55:36.097Z,1.00
2024-02-19T14:58:05.778Z,1.00
2024-02-19T15:00:36.279Z,1.00
2024-02-19T15:03:05.486Z,1.00
2024-02-19T15:05:33.848Z,1.00
2024-02-19T15:08:02.512Z,1.00
2024-02-19T15:10:30.855Z,1.00
2024-02-19T15:13:00.581Z,1.00
2024-02-19T15:15:28.890Z,1.00
2024-02-19T15:17:57.130Z,1.00
2024-02-19T15:20:25.245Z,1.00
2024-02-19T15:22:53.164Z,1.00
2024-02-19T15:25:21.804Z,1.00
2024-02-19T15:27:49.977Z,1.00
2024-02-19T15:30:20.575Z,1.00
2024-02-19T15:32:48.980Z,1.00
2024-02-19T15:35:17.220Z,1.00
2024-02-19T15:37:45.219Z,1.00
2024-02-19T15:40:13.057Z,1.00
2024-02-19T15:42:40.915Z,1.00
2024-02-19T15:45:09.214Z,1.00
2024-02-19T15:47:38.403Z,1.00
2024-02-19T15:50:08.548Z,1.00
2024-02-19T15:52:36.662Z,1.00
2024-02-19T15:55:06.752Z,1.00
2024-02-19T15:57:34.804Z,1.00
2024-02-19T16:00:02.764Z,1.00
2024-02-19T16:02:30.987Z,1.00
2024-02-19T16:05:00.261Z,99.90
2024-02-19T16:07:29.105Z,99.90
2024-02-19T16:09:57.020Z,99.90
2024-02-19T16:12:24.895Z,99.90
2024-02-19T16:14:52.847Z,1.00
2024-02-19T16:17:21.182Z,91.10
2024-02-19T16:19:49.165Z,25.60
2024-02-19T16:22:18.493Z,99.90
2024-02-19T16:24:46.351Z,99.90
2024-02-19T16:27:14.211Z,99.90
2024-02-19T16:29:42.651Z,1.00
2024-02-19T16:32:10.969Z,99.90
2024-02-19T16:34:38.941Z,99.90
2024-02-19T16:37:06.824Z,1.00
2024-02-19T16:39:36.053Z,1.00
2024-02-19T16:42:06.454Z,99.90
2024-02-19T16:44:36.081Z,99.90
2024-02-19T16:47:03.956Z,99.90
2024-02-19T16:49:31.853Z,99.90
2024-02-19T16:51:59.782Z,99.90
2024-02-19T16:54:28.314Z,99.90
2024-02-19T16:56:57.478Z,99.90
2024-02-19T16:59:25.276Z,99.90
2024-02-19T17:01:53.220Z,1.00
2024-02-19T17:04:21.235Z,1.00
2024-02-19T17:06:51.375Z,99.90
2024-02-19T17:09:19.381Z,99.90
2024-02-19T17:11:47.307Z,1.00
2024-02-19T17:14:17.441Z,99.90
2024-02-19T17:16:50.339Z,99.90
2024-02-19T17:19:18.287Z,99.90
2024-02-19T17:21:46.561Z,99.90
2024-02-19T17:24:14.501Z,1.00
2024-02-19T17:26:45.255Z,1.00
2024-02-19T17:29:13.064Z,79.70
2024-02-19T17:31:43.710Z,99.90
2024-02-19T17:34:12.761Z,1.00
2024-02-19T17:36:40.704Z,1.00
2024-02-19T17:39:08.695Z,29.80
2024-02-19T17:41:37.147Z,61.20
2024-02-19T17:44:05.612Z,46.40
2024-02-19T17:46:33.522Z,23.00
2024-02-19T17:49:02.848Z,99.90
2024-02-19T17:51:30.696Z,99.90
2024-02-19T17:54:00.697Z,1.00
2024-02-19T17:56:30.240Z,99.90
2024-02-19T17:58:58.076Z,99.90
2024-02-19T18:01:27.305Z,1.00
2024-02-19T18:03:55.794Z,77.60
2024-02-19T18:06:25.152Z,1.00
2024-02-19T18:08:53.189Z,99.90
2024-02-19T18:11:21.230Z,1.00
2024-02-19T18:13:49.048Z,1.00
2024-02-19T18:16:17.868Z,1.00
2024-02-19T18:18:46.251Z,99.90
2024-02-19T18:21:14.241Z,99.90
2024-02-19T18:23:43.413Z,99.90
2024-02-19T18:26:12.893Z,1.00
2024-02-19T18:28:41.220Z,1.00
2024-02-19T18:31:11.503Z,1.00
2024-02-19T18:33:39.578Z,99.90
2024-02-19T18:36:08.009Z,54.30
2024-02-19T18:38:39.692Z,99.90
2024-02-19T18:41:09.099Z,2.50
2024-02-19T18:43:37.065Z,96.10
2024-02-19T18:46:05.144Z,99.90
2024-02-19T18:48:35.244Z,99.90
2024-02-19T18:51:05.144Z,99.90
2024-02-19T18:53:33.158Z,1.00
2024-02-19T18:56:03.122Z,99.90
2024-02-19T18:58:32.557Z,1.00
2024-02-19T19:01:01.264Z,1.00
2024-02-19T19:03:29.344Z,99.90
2024-02-19T19:05:59.839Z,99.90
2024-02-19T19:08:28.165Z,99.90
2024-02-19T19:10:56.074Z,99.90
2024-02-19T19:13:24.080Z,99.90
2024-02-19T19:15:54.578Z,99.90
2024-02-19T19:18:22.990Z,99.90
2024-02-19T19:20:51.429Z,99.90
2024-02-19T19:23:19.334Z,1.00
2024-02-19T19:25:47.168Z,1.00
2024-02-19T19:28:15.595Z,99.90
2024-02-19T19:30:44.436Z,99.90
2024-02-19T19:33:14.815Z,1.00
2024-02-19T19:35:44.844Z,1.00
2024-02-19T19:38:12.827Z,1.00
2024-02-19T19:40:40.786Z,1.00
2024-02-19T19:43:08.766Z,35.10
2024-02-19T19:45:36.716Z,99.90
2024-02-19T19:48:05.421Z,11.60
2024-02-19T19:50:34.649Z,12.60
2024-02-19T19:53:02.675Z,1.00
2024-02-19T19:55:30.610Z,52.60
2024-02-19T19:58:00.216Z,99.90
2024-02-19T20:00:28.788Z,99.90
2024-02-19T20:02:57.977Z,99.90
2024-02-19T20:05:25.933Z,99.90
2024-02-19T20:07:55.222Z,99.90
2024-02-19T20:10:23.152Z,99.90
2024-02-19T20:12:51.531Z,1.00
2024-02-19T20:15:19.402Z,1.00
2024-02-19T20:17:47.278Z,1.00
2024-02-19T20:20:15.328Z,1.00
2024-02-19T20:22:43.234Z,1.00
2024-02-19T20:25:12.910Z,1.00
2024-02-19T20:27:40.811Z,1.00
2024-02-19T20:30:12.060Z,1.00
2024-02-19T20:32:40.145Z,1.00
2024-02-19T20:35:08.783Z,1.00
2024-02-19T20:37:36.715Z,1.00
2024-02-19T20:40:05.982Z,1.00
2024-02-19T20:42:35.910Z,1.00
2024-02-19T20:45:03.840Z,1.00
2024-02-19T20:47:31.749Z,1.00
2024-02-19T20:50:00.870Z,1.00
2024-02-19T20:52:29.016Z,1.00
2024-02-19T20:54:57.031Z,1.00
2024-02-19T20:57:25.674Z,1.00
2024-02-19T20:59:55.103Z,1.00
2024-02-19T21:02:23.080Z,1.00
2024-02-19T21:04:50.971Z,1.00
2024-02-19T21:07:18.950Z,1.00
2024-02-19T21:09:46.906Z,1.00
2024-02-19T21:12:14.834Z,1.00
2024-02-19T21:14:42.790Z,1.00
2024-02-19T21:17:11.943Z,1.00
2024-02-19T21:19:39.814Z,1.00
2024-02-19T21:22:07.829Z,1.00
2024-02-19T21:24:35.763Z,1.00
2024-02-19T21:27:03.579Z,1.00
2024-02-19T21:29:31.614Z,1.00
2024-02-19T21:31:59.825Z,1.00
2024-02-19T21:34:29.364Z,1.00
2024-02-19T21:36:58.326Z,1.00
2024-02-19T21:39:26.837Z,1.00
2024-02-19T21:41:54.738Z,99.90
2024-02-19T21:44:23.108Z,1.00
2024-02-19T21:46:50.977Z,1.00
2024-02-19T21:49:21.129Z,1.00
2024-02-19T21:51:50.626Z,1.00
2024-02-19T21:54:18.490Z,1.00
2024-02-19T21:56:46.392Z,1.00
2024-02-19T21:59:14.266Z,1.00
2024-02-19T22:01:42.264Z,1.00
2024-02-19T22:04:10.509Z,1.00
2024-02-19T22:06:38.380Z,1.00
2024-02-19T22:09:07.730Z,1.00
2024-02-19T22:11:36.808Z,1.00
2024-02-19T22:14:05.147Z,1.00
2024-02-19T22:16:33.071Z,1.00
2024-02-19T22:19:01.028Z,1.00
2024-02-19T22:21:31.496Z,1.00
2024-02-19T22:23:59.379Z,1.00
2024-02-19T22:26:28.526Z,1.00
2024-02-19T22:28:56.338Z,1.00
2024-02-19T22:31:24.563Z,1.00
2024-02-19T22:33:52.537Z,1.00
2024-02-19T22:36:20.436Z,1.00
2024-02-19T22:38:48.347Z,1.00
2024-02-19T22:41:16.166Z,1.00
2024-02-19T22:43:45.337Z,1.00
2024-02-19T22:46:13.203Z,1.00
2024-02-19T22:48:41.109Z,1.00
2024-02-19T22:51:09.210Z,1.00
2024-02-19T22:53:37.535Z,1.00
2024-02-19T22:56:06.080Z,1.00
2024-02-19T22:58:35.982Z,1.00
2024-02-19T23:01:06.267Z,1.00
2024-02-19T23:03:34.343Z,1.00
2024-02-19T23:06:02.264Z,1.00
2024-02-19T23:08:30.145Z,1.00
2024-02-19T23:10:58.096Z,1.00
2024-02-19T23:13:26.035Z,1.00
2024-02-19T23:15:53.888Z,1.00
2024-02-19T23:18:23.892Z,1.00
2024-02-19T23:20:51.757Z,1.00
2024-02-19T23:23:19.612Z,1.00
2024-02-19T23:25:51.831Z,1.00
2024-02-19T23:28:19.711Z,1.00
2024-02-19T23:30:47.665Z,1.00
2024-02-19T23:33:15.645Z,1.00
2024-02-19T23:35:44.891Z,1.00
2024-02-19T23:38:13.762Z,1.00
2024-02-19T23:40:41.679Z,1.00
2024-02-19T23:43:09.628Z,1.00
2024-02-19T23:45:37.459Z,99.90
2024-02-19T23:48:05.589Z,99.90
2024-02-19T23:50:33.655Z,99.90
2024-02-19T23:53:02.971Z,99.90
2024-02-19T23:55:30.856Z,1.00
2024-02-19T23:57:59.224Z,1.00
